createdAt,value
2019-05-03T00:00:36.637Z,59.10
2019-05-03T00:02:59.443Z,59.00
2019-05-03T00:05:13.355Z,59.00
2019-05-03T00:07:18.119Z,59.00
2019-05-03T00:09:23.108Z,58.90
2019-05-03T00:11:27.899Z,59.00
2019-05-03T00:13:32.681Z,58.90
2019-05-03T00:15:39.113Z,59.00
2019-05-03T00:17:43.907Z,59.00
2019-05-03T00:19:48.759Z,59.00
2019-05-03T00:21:53.552Z,59.10
2019-05-03T00:23:58.357Z,59.20
2019-05-03T00:26:03.137Z,59.20
2019-05-03T00:28:08.088Z,59.20
2019-05-03T00:30:12.875Z,59.20
2019-05-03T00:32:17.717Z,59.20
2019-05-03T00:34:42.169Z,59.20
2019-05-03T00:36:48.604Z,59.20
2019-05-03T00:38:54.987Z,59.20
2019-05-03T00:41:01.732Z,59.30
2019-05-03T00:43:06.245Z,59.30
2019-05-03T00:45:12.590Z,59.20
2019-05-03T00:47:17.493Z,59.10
2019-05-03T00:49:22.682Z,59.30
2019-05-03T00:51:27.822Z,59.20
2019-05-03T00:53:32.624Z,59.30
2019-05-03T00:55:37.428Z,59.30
2019-05-03T00:57:42.340Z,59.30
2019-05-03T00:59:47.108Z,59.20
2019-05-03T01:01:52.225Z,59.10
2019-05-03T01:03:57.093Z,59.00
2019-05-03T01:06:02.267Z,59.10
2019-05-03T01:08:07.185Z,59.10
2019-05-03T01:10:12.336Z,59.20
2019-05-03T01:12:18.434Z,59.30
2019-05-03T01:14:23.220Z,59.30
2019-05-03T01:16:27.978Z,59.40
2019-05-03T01:18:32.744Z,59.30
2019-05-03T01:20:37.554Z,59.40
2019-05-03T01:22:42.530Z,59.50
2019-05-03T01:24:47.399Z,59.40
2019-05-03T01:26:52.635Z,59.50
2019-05-03T01:28:59.070Z,59.50
2019-05-03T01:31:03.914Z,59.40
2019-05-03T01:33:08.720Z,59.60
2019-05-03T01:35:13.497Z,59.60
2019-05-03T01:37:18.302Z,59.50
2019-05-03T01:39:23.114Z,59.70
2019-05-03T01:41:27.884Z,59.70
2019-05-03T01:43:32.653Z,59.70
2019-05-03T01:45:37.452Z,59.70
2019-05-03T01:47:43.911Z,59.70
2019-05-03T01:49:53.094Z,59.70
2019-05-03T01:52:05.358Z,59.70
2019-05-03T01:54:12.183Z,59.70
2019-05-03T01:56:16.558Z,59.70
2019-05-03T01:58:22.282Z,59.80
2019-05-03T02:00:28.734Z,59.80
2019-05-03T02:02:35.151Z,60.00
2019-05-03T02:04:41.785Z,60.00
2019-05-03T02:06:46.656Z,60.00
2019-05-03T02:08:52.191Z,59.90
2019-05-03T02:10:57.088Z,59.90
2019-05-03T02:13:01.875Z,59.90
2019-05-03T02:15:08.155Z,60.00
2019-05-03T02:17:12.944Z,59.90
2019-05-03T02:19:17.710Z,59.90
2019-05-03T02:21:22.669Z,59.80
2019-05-03T02:23:27.501Z,59.80
2019-05-03T02:25:32.404Z,59.70
2019-05-03T02:27:37.389Z,59.80
2019-05-03T02:29:42.174Z,59.80
2019-05-03T02:31:47.309Z,59.80
2019-05-03T02:33:53.341Z,59.90
2019-05-03T02:35:58.517Z,59.90
2019-05-03T02:38:03.772Z,59.80
2019-05-03T02:40:12.788Z,59.90
2019-05-03T02:42:16.357Z,59.90
2019-05-03T02:44:22.227Z,59.90
2019-05-03T02:46:47.145Z,59.90
2019-05-03T02:48:56.372Z,60.10
2019-05-03T02:51:01.165Z,60.00
2019-05-03T02:53:05.953Z,60.10
2019-05-03T02:55:12.067Z,60.20
2019-05-03T02:57:16.978Z,60.30
2019-05-03T02:59:21.779Z,61.10
2019-05-03T03:01:26.799Z,60.20
2019-05-03T03:03:32.104Z,60.20
2019-05-03T03:05:36.870Z,60.10
2019-05-03T03:07:45.765Z,60.00
2019-05-03T03:09:49.309Z,60.00
2019-05-03T03:11:55.764Z,60.00
2019-05-03T03:14:00.717Z,60.00
2019-05-03T03:16:07.264Z,60.00
2019-05-03T03:18:12.052Z,60.00
2019-05-03T03:20:16.817Z,60.20
2019-05-03T03:22:21.625Z,60.00
2019-05-03T03:24:27.439Z,60.10
2019-05-03T03:26:38.218Z,60.00
2019-05-03T03:28:38.661Z,60.30
2019-05-03T03:31:02.873Z,60.30
2019-05-03T03:33:10.935Z,60.20
2019-05-03T03:35:21.580Z,60.20
2019-05-03T03:37:26.088Z,60.30
2019-05-03T03:39:31.050Z,60.20
2019-05-03T03:41:35.850Z,60.20
2019-05-03T03:43:40.635Z,60.20
2019-05-03T03:45:45.693Z,60.10
2019-05-03T03:47:55.812Z,60.20
2019-05-03T03:49:59.251Z,60.30
2019-05-03T03:52:06.183Z,60.40
2019-05-03T03:54:10.430Z,60.30
2019-05-03T03:56:15.984Z,60.40
2019-05-03T03:58:23.047Z,60.40
2019-05-03T04:00:27.389Z,60.70
2019-05-03T04:02:35.124Z,60.50
2019-05-03T04:04:38.734Z,60.50
2019-05-03T04:06:46.415Z,60.50
2019-05-03T04:08:49.926Z,60.50
2019-05-03T04:10:55.853Z,60.50
2019-05-03T04:13:00.794Z,60.50
2019-05-03T04:15:10.009Z,61.30
2019-05-03T04:17:16.817Z,60.30
2019-05-03T04:19:25.108Z,60.40
2019-05-03T04:21:29.690Z,60.60
2019-05-03T04:23:35.871Z,60.50
2019-05-03T04:25:40.870Z,60.80
2019-05-03T04:27:45.924Z,60.80
2019-05-03T04:29:50.722Z,60.80
2019-05-03T04:31:56.575Z,60.70
2019-05-03T04:34:05.069Z,60.80
2019-05-03T04:36:09.642Z,60.60
2019-05-03T04:38:16.234Z,60.60
2019-05-03T04:40:20.786Z,60.80
2019-05-03T04:42:25.915Z,60.60
2019-05-03T04:44:30.794Z,60.60
2019-05-03T04:46:35.947Z,60.80
2019-05-03T04:48:40.922Z,60.60
2019-05-03T04:50:45.878Z,60.70
2019-05-03T04:52:50.678Z,60.60
2019-05-03T04:54:57.113Z,60.70
2019-05-03T04:57:01.886Z,60.60
2019-05-03T04:59:06.707Z,60.60
2019-05-03T05:01:11.437Z,60.50
2019-05-03T05:03:16.138Z,60.30
2019-05-03T05:05:20.976Z,60.40
2019-05-03T05:07:26.420Z,60.30
2019-05-03T05:09:31.295Z,60.30
2019-05-03T05:11:36.071Z,60.50
2019-05-03T05:13:40.835Z,60.30
2019-05-03T05:15:46.205Z,60.30
2019-05-03T05:17:58.167Z,60.40
2019-05-03T05:20:10.832Z,60.50
2019-05-03T05:22:17.146Z,60.50
2019-05-03T05:24:21.909Z,60.50
2019-05-03T05:26:35.281Z,60.60
2019-05-03T05:28:41.857Z,60.60
2019-05-03T05:30:46.664Z,60.50
2019-05-03T05:32:51.432Z,60.50
2019-05-03T05:34:56.193Z,60.60
2019-05-03T05:37:01.135Z,60.60
2019-05-03T05:39:06.748Z,60.60
2019-05-03T05:41:11.602Z,60.60
2019-05-03T05:43:16.355Z,60.60
2019-05-03T05:45:21.101Z,60.70
2019-05-03T05:47:27.449Z,60.60
2019-05-03T05:49:39.695Z,60.50
2019-05-03T05:51:44.594Z,60.70
2019-05-03T05:53:49.316Z,60.60
2019-05-03T05:56:10.481Z,60.60
2019-05-03T05:58:16.789Z,60.60
2019-05-03T06:00:23.210Z,60.50
2019-05-03T06:02:27.976Z,60.80
2019-05-03T06:04:34.800Z,60.80
2019-05-03T06:06:46.973Z,60.80
2019-05-03T06:08:59.341Z,60.70
2019-05-03T06:11:21.775Z,60.60
2019-05-03T06:13:30.858Z,60.60
2019-05-03T06:15:55.102Z,60.60
2019-05-03T06:18:01.496Z,60.70
2019-05-03T06:20:17.113Z,60.70
2019-05-03T06:22:25.539Z,61.70
2019-05-03T06:24:45.148Z,60.80
2019-05-03T06:26:54.630Z,61.20
2019-05-03T06:29:00.459Z,60.70
2019-05-03T06:31:12.573Z,60.70
2019-05-03T06:33:17.282Z,60.70
2019-05-03T06:35:22.106Z,60.90
2019-05-03T06:37:28.481Z,61.20
2019-05-03T06:39:35.111Z,61.90
2019-05-03T06:41:39.636Z,61.80
2019-05-03T06:43:48.392Z,61.90
2019-05-03T06:45:51.055Z,61.40
2019-05-03T06:47:55.852Z,61.40
2019-05-03T06:50:00.581Z,61.10
2019-05-03T06:52:08.245Z,60.60
2019-05-03T06:54:15.522Z,60.70
2019-05-03T06:56:24.010Z,60.80
2019-05-03T06:58:33.041Z,60.60
2019-05-03T07:00:35.154Z,60.30
2019-05-03T07:02:44.784Z,60.10
2019-05-03T07:05:00.206Z,59.70
2019-05-03T07:07:26.071Z,59.60
2019-05-03T07:09:49.702Z,59.00
2019-05-03T07:11:55.535Z,58.80
2019-05-03T07:14:00.374Z,58.60
2019-05-03T07:16:05.089Z,58.20
2019-05-03T07:18:09.760Z,58.10
2019-05-03T07:20:14.854Z,58.00
2019-05-03T07:22:19.684Z,57.50
2019-05-03T07:24:24.871Z,57.30
2019-05-03T07:26:31.158Z,57.10
2019-05-03T07:28:46.274Z,56.90
2019-05-03T07:30:42.248Z,56.70
2019-05-03T07:32:48.694Z,56.60
2019-05-03T07:34:55.456Z,56.50
2019-05-03T07:36:59.777Z,56.40
2019-05-03T07:39:07.189Z,56.20
2019-05-03T07:41:11.955Z,56.30
2019-05-03T07:43:18.880Z,56.30
2019-05-03T07:45:25.200Z,55.90
2019-05-03T07:47:30.108Z,55.80
2019-05-03T07:49:35.662Z,55.90
2019-05-03T07:51:40.587Z,54.90
2019-05-03T07:53:45.380Z,55.10
2019-05-03T07:55:54.802Z,55.00
2019-05-03T07:58:01.295Z,54.80
2019-05-03T08:00:08.133Z,54.40
2019-05-03T08:02:14.471Z,54.30
2019-05-03T08:04:19.331Z,54.40
2019-05-03T08:06:24.743Z,54.60
2019-05-03T08:08:29.651Z,54.60
2019-05-03T08:10:34.574Z,54.60
2019-05-03T08:12:39.525Z,54.30
2019-05-03T08:14:44.691Z,54.40
2019-05-03T08:16:49.561Z,54.50
2019-05-03T08:18:55.842Z,54.70
2019-05-03T08:21:00.788Z,54.70
2019-05-03T08:23:07.154Z,54.70
2019-05-03T08:25:11.898Z,54.50
2019-05-03T08:27:16.647Z,54.20
2019-05-03T08:29:21.429Z,54.30
2019-05-03T08:31:35.390Z,54.30
2019-05-03T08:33:47.960Z,54.00
2019-05-03T08:35:55.364Z,53.80
2019-05-03T08:38:01.250Z,53.90
2019-05-03T08:40:06.468Z,54.10
2019-05-03T08:42:15.507Z,54.20
2019-05-03T08:44:20.203Z,54.30
2019-05-03T08:46:25.480Z,54.50
2019-05-03T08:48:30.269Z,54.30
2019-05-03T08:50:35.084Z,54.30
2019-05-03T08:52:39.874Z,53.90
2019-05-03T08:54:44.984Z,53.80
2019-05-03T08:56:49.814Z,53.20
2019-05-03T08:58:55.457Z,52.90
2019-05-03T09:01:00.243Z,52.90
2019-05-03T09:03:05.304Z,52.60
2019-05-03T09:05:10.149Z,52.50
2019-05-03T09:07:14.969Z,52.60
2019-05-03T09:09:21.312Z,52.40
2019-05-03T09:11:33.992Z,52.20
2019-05-03T09:13:34.358Z,52.20
2019-05-03T09:15:40.689Z,52.00
2019-05-03T09:17:45.536Z,51.70
2019-05-03T09:19:50.255Z,52.00
2019-05-03T09:21:54.956Z,51.90
2019-05-03T09:23:59.749Z,51.50
2019-05-03T09:26:04.751Z,51.30
2019-05-03T09:28:10.138Z,51.40
2019-05-03T09:30:14.897Z,51.60
2019-05-03T09:32:19.581Z,51.40
2019-05-03T09:34:25.701Z,51.50
2019-05-03T09:36:30.672Z,51.20
2019-05-03T09:38:35.402Z,50.80
2019-05-03T09:40:40.150Z,50.90
2019-05-03T09:42:45.002Z,50.80
2019-05-03T09:44:52.620Z,50.50
2019-05-03T09:46:57.466Z,50.40
2019-05-03T09:49:12.593Z,50.70
2019-05-03T09:51:08.616Z,50.60
2019-05-03T09:53:14.953Z,50.40
2019-05-03T09:55:21.357Z,50.80
2019-05-03T09:57:26.114Z,50.80
2019-05-03T09:59:30.872Z,50.90
2019-05-03T10:01:35.550Z,50.80
2019-05-03T10:03:40.277Z,50.40
2019-05-03T10:05:45.836Z,50.80
2019-05-03T10:07:50.758Z,49.50
2019-05-03T10:09:55.538Z,49.70
2019-05-03T10:12:01.313Z,49.90
2019-05-03T10:14:06.061Z,50.00
2019-05-03T10:16:10.814Z,50.00
2019-05-03T10:18:16.281Z,50.00
2019-05-03T10:20:22.405Z,49.80
2019-05-03T10:22:28.354Z,49.90
2019-05-03T10:24:34.984Z,49.80
2019-05-03T10:26:39.473Z,49.20
2019-05-03T10:28:44.268Z,49.40
2019-05-03T10:30:49.990Z,49.10
2019-05-03T10:33:03.231Z,48.90
2019-05-03T10:35:11.324Z,48.60
2019-05-03T10:37:24.416Z,48.80
2019-05-03T10:39:29.243Z,48.70
2019-05-03T10:41:34.806Z,48.60
2019-05-03T10:43:39.669Z,48.90
2019-05-03T10:45:44.979Z,48.90
2019-05-03T10:47:49.975Z,49.10
2019-05-03T10:49:55.120Z,49.00
2019-05-03T10:52:01.580Z,48.70
2019-05-03T10:54:06.337Z,48.40
2019-05-03T10:56:28.019Z,48.80
2019-05-03T10:58:32.780Z,48.80
2019-05-03T11:00:45.017Z,48.90
2019-05-03T11:02:48.590Z,48.70
2019-05-03T11:04:54.877Z,49.00
2019-05-03T11:06:59.778Z,48.80
2019-05-03T11:09:05.894Z,48.60
2019-05-03T11:11:10.936Z,48.40
2019-05-03T11:13:15.700Z,48.60
2019-05-03T11:15:20.683Z,48.50
2019-05-03T11:17:25.717Z,48.80
2019-05-03T11:19:34.600Z,48.30
2019-05-03T11:21:36.917Z,48.40
2019-05-03T11:23:41.994Z,48.40
2019-05-03T11:25:46.818Z,48.10
2019-05-03T11:27:55.162Z,48.00
2019-05-03T11:29:59.530Z,48.20
2019-05-03T11:32:14.932Z,48.00
2019-05-03T11:34:22.766Z,48.20
2019-05-03T11:36:32.255Z,47.60
2019-05-03T11:38:38.674Z,47.80
2019-05-03T11:40:45.490Z,47.90
2019-05-03T11:42:51.401Z,47.80
2019-05-03T11:44:56.465Z,47.70
2019-05-03T11:47:01.332Z,47.00
2019-05-03T11:49:06.068Z,46.70
2019-05-03T11:51:10.746Z,47.20
2019-05-03T11:53:15.530Z,47.40
2019-05-03T11:55:20.306Z,48.10
2019-05-03T11:57:26.742Z,47.10
2019-05-03T11:59:34.411Z,47.10
2019-05-03T12:01:40.567Z,47.20
2019-05-03T12:03:46.895Z,46.80
2019-05-03T12:05:55.117Z,46.80
2019-05-03T12:08:00.507Z,46.40
2019-05-03T12:10:17.553Z,46.70
2019-05-03T12:12:15.178Z,46.00
2019-05-03T12:14:21.021Z,46.30
2019-05-03T12:17:06.969Z,46.00
2019-05-03T12:18:48.009Z,45.90
2019-05-03T12:20:40.566Z,45.90
2019-05-03T12:22:47.019Z,45.90
2019-05-03T12:24:53.973Z,46.20
2019-05-03T12:26:59.372Z,46.30
2019-05-03T12:29:04.579Z,46.00
2019-05-03T12:31:24.359Z,45.90
2019-05-03T12:33:15.891Z,45.90
2019-05-03T12:35:20.573Z,46.00
2019-05-03T12:37:26.967Z,46.40
2019-05-03T12:39:31.691Z,46.20
2019-05-03T12:41:36.453Z,45.90
2019-05-03T12:43:41.187Z,46.00
2019-05-03T12:45:45.961Z,46.30
2019-05-03T12:47:50.637Z,46.30
2019-05-03T12:49:55.880Z,46.10
2019-05-03T12:52:00.911Z,46.50
2019-05-03T12:54:05.655Z,46.10
2019-05-03T12:56:12.927Z,46.30
2019-05-03T12:58:16.827Z,46.70
2019-05-03T13:00:39.283Z,47.10
2019-05-03T13:02:48.700Z,47.20
2019-05-03T13:04:55.293Z,47.20
2019-05-03T13:07:05.456Z,47.10
2019-05-03T13:09:11.127Z,47.10
2019-05-03T13:11:15.871Z,47.00
2019-05-03T13:13:20.569Z,47.10
2019-05-03T13:15:25.359Z,47.40
2019-05-03T13:17:36.529Z,47.30
2019-05-03T13:19:41.291Z,47.40
2019-05-03T13:21:46.223Z,47.20
2019-05-03T13:23:50.913Z,47.50
2019-05-03T13:25:55.690Z,47.60
2019-05-03T13:28:00.386Z,47.80
2019-05-03T13:30:08.669Z,48.00
2019-05-03T13:32:13.450Z,47.90
2019-05-03T13:34:18.199Z,48.00
2019-05-03T13:36:25.145Z,48.10
2019-05-03T13:38:29.334Z,48.10
2019-05-03T13:40:35.906Z,48.20
2019-05-03T13:42:54.291Z,48.30
2019-05-03T13:44:47.896Z,48.40
2019-05-03T13:46:55.049Z,48.70
2019-05-03T13:48:59.508Z,49.50
2019-05-03T13:51:05.309Z,48.70
2019-05-03T13:53:10.162Z,48.80
2019-05-03T13:55:14.865Z,48.90
2019-05-03T13:57:19.619Z,49.00
2019-05-03T13:59:24.691Z,49.10
2019-05-03T14:01:29.537Z,50.00
2019-05-03T14:03:35.535Z,49.40
2019-05-03T14:05:40.334Z,49.50
2019-05-03T14:07:45.057Z,49.70
2019-05-03T14:09:49.816Z,49.70
2019-05-03T14:11:55.304Z,49.70
2019-05-03T14:14:00.137Z,49.80
2019-05-03T14:16:05.721Z,49.90
2019-05-03T14:18:11.744Z,50.20
2019-05-03T14:20:35.179Z,50.20
2019-05-03T14:22:47.470Z,50.30
2019-05-03T14:24:52.180Z,50.20
2019-05-03T14:26:56.998Z,50.40
2019-05-03T14:29:01.735Z,50.60
2019-05-03T14:31:06.512Z,50.50
2019-05-03T14:33:11.268Z,50.80
2019-05-03T14:35:16.272Z,50.80
2019-05-03T14:37:21.247Z,51.10
2019-05-03T14:39:26.040Z,51.20
2019-05-03T14:41:30.799Z,51.30
2019-05-03T14:43:35.637Z,51.30
2019-05-03T14:45:40.346Z,51.30
2019-05-03T14:47:45.231Z,51.40
2019-05-03T14:49:50.099Z,51.50
2019-05-03T14:51:56.696Z,51.60
2019-05-03T14:54:05.325Z,51.70
2019-05-03T14:56:21.141Z,51.90
2019-05-03T14:58:32.577Z,51.90
2019-05-03T15:00:45.050Z,51.80
2019-05-03T15:02:52.253Z,51.80
2019-05-03T15:04:56.929Z,51.90
2019-05-03T15:07:01.672Z,52.20
2019-05-03T15:09:07.573Z,51.80
2019-05-03T15:11:12.458Z,51.80
2019-05-03T15:13:18.833Z,51.70
2019-05-03T15:15:25.068Z,51.70
2019-05-03T15:17:30.051Z,51.80
2019-05-03T15:19:35.093Z,52.60
2019-05-03T15:21:40.971Z,52.00
2019-05-03T15:23:46.369Z,52.10
2019-05-03T15:25:51.157Z,52.00
2019-05-03T15:27:55.935Z,52.00
2019-05-03T15:30:00.731Z,52.10
2019-05-03T15:32:05.490Z,52.00
2019-05-03T15:34:10.252Z,52.00
2019-05-03T15:36:15.389Z,52.00
2019-05-03T15:38:20.299Z,52.00
2019-05-03T15:40:25.167Z,52.00
2019-05-03T15:42:30.792Z,52.10
2019-05-03T15:44:55.237Z,51.90
2019-05-03T15:47:09.528Z,52.20
2019-05-03T15:49:11.666Z,52.30
2019-05-03T15:51:16.361Z,52.30
2019-05-03T15:53:21.100Z,52.20
2019-05-03T15:55:25.887Z,52.10
2019-05-03T15:57:30.628Z,52.10
2019-05-03T15:59:35.336Z,52.10
2019-05-03T16:01:41.762Z,51.90
2019-05-03T16:03:46.504Z,51.90
2019-05-03T16:05:52.370Z,51.90
2019-05-03T16:07:57.101Z,52.00
2019-05-03T16:10:01.935Z,51.90
2019-05-03T16:12:07.029Z,52.00
2019-05-03T16:14:11.788Z,52.00
2019-05-03T16:16:16.550Z,52.10
2019-05-03T16:18:21.361Z,52.10
2019-05-03T16:20:26.115Z,52.10
2019-05-03T16:22:30.860Z,52.20
2019-05-03T16:24:35.659Z,52.20
2019-05-03T16:26:58.530Z,52.10
2019-05-03T16:29:11.120Z,52.10
2019-05-03T16:31:24.831Z,52.00
2019-05-03T16:33:29.668Z,51.80
2019-05-03T16:35:34.929Z,51.80
2019-05-03T16:37:40.756Z,51.90
2019-05-03T16:39:45.537Z,51.80
2019-05-03T16:41:50.266Z,51.80
2019-05-03T16:43:55.090Z,51.70
2019-05-03T16:45:59.816Z,51.70
2019-05-03T16:48:04.625Z,51.90
2019-05-03T16:50:10.437Z,51.90
2019-05-03T16:52:17.384Z,51.80
2019-05-03T16:54:21.576Z,51.80
2019-05-03T16:56:26.244Z,51.80
2019-05-03T16:58:31.025Z,51.80
2019-05-03T17:00:35.686Z,51.80
2019-05-03T17:02:40.458Z,51.70
2019-05-03T17:04:50.037Z,51.70
2019-05-03T17:07:09.462Z,51.70
2019-05-03T17:09:18.497Z,51.80
2019-05-03T17:11:25.774Z,51.70
2019-05-03T17:13:30.455Z,52.00
2019-05-03T17:15:35.380Z,52.00
2019-05-03T17:17:41.733Z,52.10
2019-05-03T17:19:47.637Z,52.00
2019-05-03T17:21:52.329Z,52.10
2019-05-03T17:23:57.103Z,52.10
2019-05-03T17:26:01.854Z,52.20
2019-05-03T17:28:06.595Z,52.30
2019-05-03T17:30:11.839Z,52.30
2019-05-03T17:32:16.589Z,52.40
2019-05-03T17:34:21.257Z,52.50
2019-05-03T17:36:26.023Z,52.40
2019-05-03T17:38:30.755Z,52.40
2019-05-03T17:40:40.011Z,52.40
2019-05-03T17:43:04.985Z,52.30
2019-05-03T17:45:11.376Z,52.20
2019-05-03T17:47:19.535Z,52.10
2019-05-03T17:49:24.417Z,52.10
2019-05-03T17:51:40.059Z,52.00
2019-05-03T17:53:55.486Z,51.90
2019-05-03T17:58:32.642Z,51.90
2019-05-03T18:00:44.862Z,52.00
2019-05-03T18:02:50.205Z,52.10
2019-05-03T18:05:14.666Z,51.90
2019-05-03T18:07:37.658Z,51.90
2019-05-03T18:09:44.881Z,51.80
2019-05-03T18:11:54.045Z,51.80
2019-05-03T18:13:58.810Z,51.90
2019-05-03T18:16:04.748Z,51.90
2019-05-03T18:18:09.533Z,52.00
2019-05-03T18:20:15.041Z,51.90
2019-05-03T18:22:19.855Z,51.90
2019-05-03T18:24:24.793Z,51.80
2019-05-03T18:26:29.709Z,51.80
2019-05-03T18:28:35.606Z,51.80
2019-05-03T18:30:40.486Z,51.80
2019-05-03T18:32:45.312Z,51.80
2019-05-03T18:34:50.118Z,52.00
2019-05-03T18:36:54.891Z,52.10
2019-05-03T18:38:59.637Z,52.00
2019-05-03T18:41:04.655Z,52.00
2019-05-03T18:43:15.012Z,52.00
2019-05-03T18:45:21.510Z,52.00
2019-05-03T18:47:27.918Z,52.00
2019-05-03T18:49:32.677Z,52.00
2019-05-03T18:51:38.548Z,52.00
2019-05-03T18:53:44.930Z,52.00
2019-05-03T18:55:50.772Z,52.10
2019-05-03T18:57:56.222Z,52.10
2019-05-03T19:00:00.955Z,52.10
2019-05-03T19:02:05.738Z,52.30
2019-05-03T19:04:15.046Z,52.30
2019-05-03T19:06:19.837Z,52.30
2019-05-03T19:08:44.734Z,52.30
2019-05-03T19:10:57.419Z,52.30
2019-05-03T19:13:09.607Z,52.30
2019-05-03T19:15:14.578Z,52.20
2019-05-03T19:17:37.355Z,52.20
2019-05-03T19:19:44.658Z,52.10
2019-05-03T19:21:49.471Z,52.10
2019-05-03T19:23:54.226Z,52.20
2019-05-03T19:25:58.976Z,52.20
2019-05-03T19:28:06.034Z,52.20
2019-05-03T19:30:10.819Z,52.30
2019-05-03T19:32:16.240Z,52.20
2019-05-03T19:34:24.301Z,52.30
2019-05-03T19:36:29.076Z,52.30
2019-05-03T19:38:35.137Z,52.30
2019-05-03T19:40:40.152Z,52.30
2019-05-03T19:42:44.899Z,52.30
2019-05-03T19:44:49.709Z,52.40
2019-05-03T19:46:54.483Z,52.40
2019-05-03T19:48:59.277Z,52.40
2019-05-03T19:51:05.745Z,52.40
2019-05-03T19:53:22.786Z,52.40
2019-05-03T19:55:27.611Z,52.30
2019-05-03T19:57:37.055Z,52.30
2019-05-03T20:02:15.013Z,52.40
2019-05-03T20:04:41.109Z,52.30
2019-05-03T20:06:53.413Z,52.40
2019-05-03T20:08:59.855Z,52.40
2019-05-03T20:11:11.955Z,52.50
2019-05-03T20:13:16.765Z,52.50
2019-05-03T20:15:21.543Z,52.40
2019-05-03T20:17:26.268Z,52.50
2019-05-03T20:19:31.042Z,52.40
2019-05-03T20:21:35.764Z,52.40
2019-05-03T20:23:40.503Z,53.10
2019-05-03T20:25:45.207Z,52.30
2019-05-03T20:27:49.945Z,52.30
2019-05-03T20:29:55.693Z,52.20
2019-05-03T20:32:00.462Z,52.10
2019-05-03T20:34:05.426Z,52.00
2019-05-03T20:36:10.430Z,52.00
2019-05-03T20:38:15.311Z,52.20
2019-05-03T20:40:20.070Z,52.30
2019-05-03T20:42:42.505Z,52.30
2019-05-03T20:44:48.850Z,52.40
2019-05-03T20:46:55.308Z,52.40
2019-05-03T20:49:01.767Z,52.40
2019-05-03T20:51:07.881Z,52.40
2019-05-03T20:53:12.617Z,52.50
2019-05-03T20:55:17.419Z,52.60
2019-05-03T20:57:22.165Z,52.70
2019-05-03T20:59:26.926Z,52.90
2019-05-03T21:01:31.620Z,52.90
2019-05-03T21:03:36.534Z,52.90
2019-05-03T21:05:41.191Z,52.80
2019-05-03T21:07:45.916Z,52.80
2019-05-03T21:09:50.730Z,52.70
2019-05-03T21:11:55.397Z,52.80
2019-05-03T21:14:01.150Z,52.80
2019-05-03T21:16:16.567Z,52.90
2019-05-03T21:18:32.240Z,52.80
2019-05-03T21:20:40.165Z,52.70
2019-05-03T21:22:46.051Z,52.70
2019-05-03T21:24:55.313Z,52.60
2019-05-03T21:27:01.959Z,52.80
2019-05-03T21:29:06.628Z,52.90
2019-05-03T21:31:11.400Z,53.10
2019-05-03T21:33:17.049Z,53.10
2019-05-03T21:35:21.817Z,53.20
2019-05-03T21:37:26.585Z,53.30
2019-05-03T21:39:31.248Z,53.10
2019-05-03T21:41:37.955Z,53.50
2019-05-03T21:43:42.355Z,53.60
2019-05-03T21:46:05.199Z,53.60
2019-05-03T21:48:11.586Z,53.80
2019-05-03T21:50:17.965Z,53.80
2019-05-03T21:52:22.696Z,53.90
2019-05-03T21:54:27.445Z,53.90
2019-05-03T21:56:32.235Z,54.00
2019-05-03T21:58:36.972Z,53.90
2019-05-03T22:00:49.271Z,54.20
2019-05-03T22:02:54.685Z,54.20
2019-05-03T22:05:00.475Z,54.20
2019-05-03T22:07:05.317Z,54.60
2019-05-03T22:09:10.009Z,54.40
2019-05-03T22:11:16.297Z,54.40
2019-05-03T22:13:21.061Z,54.30
2019-05-03T22:15:27.423Z,54.60
2019-05-03T22:17:50.397Z,54.80
2019-05-03T22:19:56.721Z,54.90
2019-05-03T22:22:19.791Z,55.00
2019-05-03T22:24:32.994Z,55.20
2019-05-03T22:26:55.841Z,55.20
2019-05-03T22:29:00.607Z,55.30
2019-05-03T22:31:06.833Z,55.30
2019-05-03T22:33:11.735Z,55.40
2019-05-03T22:35:16.465Z,55.60
2019-05-03T22:37:21.167Z,55.70
2019-05-03T22:39:25.912Z,55.80
2019-05-03T22:41:31.374Z,56.00
2019-05-03T22:43:36.144Z,56.00
2019-05-03T22:45:40.815Z,56.00
2019-05-03T22:47:45.567Z,56.10
2019-05-03T22:49:50.273Z,56.10
2019-05-03T22:51:55.035Z,56.10
2019-05-03T22:53:59.761Z,56.20
2019-05-03T22:56:04.898Z,56.30
2019-05-03T22:58:09.858Z,56.20
2019-05-03T23:00:14.756Z,56.20
2019-05-03T23:02:21.469Z,56.00
2019-05-03T23:04:26.200Z,56.10
2019-05-03T23:06:30.950Z,56.30
2019-05-03T23:08:35.652Z,56.40
2019-05-03T23:10:40.390Z,56.50
2019-05-03T23:12:45.245Z,56.60
2019-05-03T23:14:50.013Z,56.60
2019-05-03T23:16:54.669Z,56.70
2019-05-03T23:19:01.040Z,56.80
2019-05-03T23:21:09.986Z,56.90
2019-05-03T23:23:32.808Z,56.70
2019-05-03T23:25:37.500Z,56.70
2019-05-03T23:27:42.170Z,56.80
2019-05-03T23:29:46.853Z,56.60
2019-05-03T23:31:51.546Z,56.60
2019-05-03T23:33:56.230Z,56.70
2019-05-03T23:36:00.960Z,56.70
2019-05-03T23:38:05.668Z,56.80
2019-05-03T23:40:10.418Z,56.90
2019-05-03T23:42:15.539Z,57.00
2019-05-03T23:44:20.598Z,57.00
2019-05-03T23:46:29.901Z,57.10
2019-05-03T23:48:35.023Z,57.10
2019-05-03T23:50:40.128Z,57.20
2019-05-03T23:52:45.218Z,57.30
2019-05-03T23:54:50.560Z,57.30
2019-05-03T23:56:55.350Z,57.40
2019-05-03T23:59:00.034Z,57.60
